< < Back
Terminal Aerodrome Forecast


Current Version              Previous Versions:   1  2  3  4  5  6  7  8  9  

Terminal Aerodrome Forecast

897
FTUS44 KOHX 250538
TAFBNA
TAF
KBNA 250538Z 2506/2606 17004KT P6SM SCT080
     FM251800 19007KT P6SM VCTS BKN050CB OVC250
     FM260000 19004KT P6SM SCT080 BKN250=



Latest METAR

634
SAUS70 KWBC 250856
MTRBNA
METAR KBNA 250853Z 19004KT 10SM OVC120 20/14 A3008 RMK AO2 SLP178
T02000139 55004


USA.gov is the U.S. government's official web portal to all federal, state and local government web resources and services.